Time;durP1;ratioP1;P1;durP2;ratioP2;P2;SDS_P1;SDS_P2;PMS_P1;PMS_P2;Temp;Humidity;BMP_temperature;BMP_pressure;BME280_temperature;BME280_humidity;BME280_pressure;Samples;Min_cycle;Max_cycle;Signal;HPM_P1;HPM_P2
2022/09/04 00:01:41;;;;;;;18.45;11.43;;;21.80;62.90;;;;;;7369889;19;20006;-81
2022/09/04 00:04:21;;;;;;;20.77;12.27;;;21.80;62.60;;;;;;7369346;19;20007;-82
2022/09/04 00:07:03;;;;;;;22.23;11.30;;;21.90;62.70;;;;;;7370652;19;20041;-81
2022/09/04 00:09:44;;;;;;;18.30;11.02;;;21.90;62.70;;;;;;7390433;19;20011;-81
2022/09/04 00:12:13;;;;;;;21.80;11.23;;;22.00;62.50;;;;;;7369034;19;20035;-81
2022/09/04 00:14:52;;;;;;;18.77;10.55;;;21.90;62.30;;;;;;7369907;19;20015;-81
2022/09/04 00:17:26;;;;;;;16.10;9.63;;;21.80;62.60;;;;;;7368958;19;20039;-82
2022/09/04 00:20:00;;;;;;;14.55;9.80;;;21.90;62.30;;;;;;7370152;19;20011;-82
2022/09/04 00:22:35;;;;;;;19.83;8.88;;;21.90;62.30;;;;;;7369018;19;20082;-82
2022/09/04 00:25:14;;;;;;;15.32;9.07;;;21.80;62.00;;;;;;7368122;19;20449;-81
2022/09/04 00:27:47;;;;;;;19.67;10.20;;;21.80;62.00;;;;;;7369486;19;20006;-82
2022/09/04 00:30:23;;;;;;;16.70;10.75;;;21.80;61.90;;;;;;7389918;19;20018;-81
2022/09/04 00:32:58;;;;;;;18.83;10.82;;;21.80;61.90;;;;;;7369438;19;20026;-82
2022/09/04 00:35:31;;;;;;;16.90;9.90;;;21.80;61.90;;;;;;7375811;19;20014;-81
2022/09/04 00:38:05;;;;;;;17.92;10.43;;;21.80;61.90;;;;;;7389846;19;20034;-81
2022/09/04 00:40:35;;;;;;;16.90;10.48;;;21.80;61.70;;;;;;7378014;19;20018;-81
2022/09/04 00:43:36;;;;;;;17.80;10.47;;;21.80;61.70;;;;;;7379333;19;20006;-81
2022/09/04 00:46:30;;;;;;;19.50;10.98;;;21.70;62.60;;;;;;7375729;19;20036;-81
2022/09/04 00:49:22;;;;;;;19.85;10.57;;;21.70;61.70;;;;;;7372863;19;20018;-81
2022/09/04 00:52:01;;;;;;;17.25;9.93;;;21.60;61.40;;;;;;7375520;19;20037;-81
2022/09/04 00:54:59;;;;;;;16.30;10.48;;;21.50;61.60;;;;;;7399692;19;20018;-82
2022/09/04 00:57:56;;;;;;;17.17;9.35;;;21.40;61.70;;;;;;7376603;19;20014;-82
2022/09/04 01:00:26;;;;;;;15.82;9.38;;;21.30;61.80;;;;;;7377915;19;20049;-81
2022/09/04 01:03:22;;;;;;;15.52;8.57;;;21.20;62.00;;;;;;7376835;19;20021;-81
2022/09/04 01:06:14;;;;;;;12.10;7.88;;;21.20;61.90;;;;;;7376849;19;20050;-81
2022/09/04 01:09:00;;;;;;;10.77;7.03;;;21.10;61.80;;;;;;7376241;19;20038;-81
2022/09/04 01:11:37;;;;;;;13.65;6.75;;;21.10;61.90;;;;;;7377853;19;20022;-81
2022/09/04 01:14:13;;;;;;;14.27;6.38;;;21.00;61.80;;;;;;7376688;19;20015;-81
2022/09/04 01:16:49;;;;;;;11.38;6.22;;;21.10;61.80;;;;;;7374345;19;20010;-81
2022/09/04 01:19:38;;;;;;;11.63;7.15;;;21.10;61.50;;;;;;7375229;19;20448;-80
2022/09/04 01:22:23;;;;;;;14.82;7.43;;;21.10;61.10;;;;;;7374713;19;20031;-81
2022/09/04 01:25:14;;;;;;;10.70;7.10;;;21.00;61.20;;;;;;7374067;19;20022;-81
2022/09/04 01:27:54;;;;;;;13.98;7.72;;;20.90;61.60;;;;;;7376522;19;20010;-80
2022/09/04 01:30:24;;;;;;;14.20;8.10;;;20.90;61.60;;;;;;7395899;19;20014;-81
2022/09/04 01:33:04;;;;;;;15.43;7.53;;;20.90;61.50;;;;;;7375416;19;20030;-81
2022/09/04 01:35:39;;;;;;;12.50;7.78;;;20.90;61.30;;;;;;7375116;19;20011;-81
2022/09/04 01:38:18;;;;;;;9.48;6.82;;;20.80;61.70;;;;;;7377713;19;20022;-81
2022/09/04 01:40:53;;;;;;;13.02;7.00;;;20.80;61.80;;;;;;7375223;19;20494;-80
2022/09/04 01:43:25;;;;;;;12.88;6.97;;;20.90;61.70;;;;;;7374656;19;20017;-80
2022/09/04 01:46:27;;;;;;;10.32;6.72;;;20.90;61.80;;;;;;7372484;19;20024;-81
2022/09/04 01:49:04;;;;;;;11.95;6.82;;;21.00;61.20;;;;;;7376504;19;20026;-81
2022/09/04 01:51:41;;;;;;;8.90;5.90;;;21.00;61.30;;;;;;7397014;19;20019;-81
2022/09/04 01:54:22;;;;;;;10.90;6.03;;;20.90;61.30;;;;;;7375826;19;20026;-81
2022/09/04 01:57:07;;;;;;;10.52;6.45;;;20.90;61.20;;;;;;7374510;19;20356;-81
2022/09/04 01:59:50;;;;;;;8.10;5.32;;;20.90;61.30;;;;;;7377042;19;20786;-81
2022/09/04 02:02:27;;;;;;;6.13;4.45;;;20.80;60.90;;;;;;7374488;19;20037;-80
2022/09/04 02:05:07;;;;;;;7.82;4.07;;;20.80;61.10;;;;;;7379318;19;20021;-80
2022/09/04 02:07:44;;;;;;;10.38;4.40;;;20.70;61.20;;;;;;7379705;19;20022;-80
2022/09/04 02:10:29;;;;;;;9.85;4.25;;;20.60;61.20;;;;;;7379513;19;20015;-80
2022/09/04 02:13:08;;;;;;;7.68;4.57;;;20.60;60.90;;;;;;7377988;19;20011;-81
2022/09/04 02:15:48;;;;;;;7.63;4.85;;;20.60;60.50;;;;;;7372653;19;20014;-81
2022/09/04 02:18:30;;;;;;;8.27;5.25;;;20.60;60.40;;;;;;7397210;19;20041;-81
2022/09/04 02:21:06;;;;;;;13.05;5.90;;;20.60;60.70;;;;;;7374127;19;20026;-81
2022/09/04 02:23:42;;;;;;;7.50;5.15;;;20.70;61.20;;;;;;7374984;19;20014;-81
2022/09/04 02:26:18;;;;;;;9.50;5.43;;;20.70;61.00;;;;;;7376920;19;20043;-81
2022/09/04 02:28:57;;;;;;;8.00;5.57;;;20.70;60.90;;;;;;7375869;19;20086;-81
2022/09/04 02:31:38;;;;;;;7.82;4.78;;;20.70;60.30;;;;;;7375476;19;20010;-81
2022/09/04 02:34:11;;;;;;;7.37;5.00;;;20.70;60.20;;;;;;7374107;19;20010;-80
2022/09/04 02:36:48;;;;;;;12.52;5.30;;;20.60;60.60;;;;;;7376113;19;20288;-81
2022/09/04 02:39:28;;;;;;;6.95;4.68;;;20.50;61.10;;;;;;7395599;19;20486;-81
2022/09/04 02:42:09;;;;;;;8.13;4.97;;;20.60;60.80;;;;;;7372874;19;20021;-81
2022/09/04 02:44:49;;;;;;;7.23;4.93;;;20.60;60.60;;;;;;7374793;19;20061;-81
2022/09/04 02:47:29;;;;;;;9.82;4.85;;;20.50;60.90;;;;;;7374911;19;20573;-81
2022/09/04 02:50:05;;;;;;;9.80;4.80;;;20.50;60.80;;;;;;7375867;19;20049;-81
2022/09/04 02:52:53;;;;;;;11.43;4.40;;;20.50;61.00;;;;;;7373322;19;20399;-81
2022/09/04 02:55:45;;;;;;;6.28;4.70;;;20.40;60.90;;;;;;7373668;19;20057;-81
2022/09/04 02:58:25;;;;;;;11.65;5.00;;;20.40;60.70;;;;;;7369732;19;20077;-81
2022/09/04 03:01:02;;;;;;;8.65;5.75;;;20.30;60.80;;;;;;7375230;19;20012;-81
2022/09/04 03:03:42;;;;;;;10.15;5.95;;;20.20;61.40;;;;;;7394918;19;20022;-81
2022/09/04 03:06:15;;;;;;;8.95;6.00;;;20.30;61.60;;;;;;7374883;19;20023;-81
2022/09/04 03:08:48;;;;;;;8.93;5.47;;;20.40;61.30;;;;;;7373042;19;20570;-81
2022/09/04 03:11:24;;;;;;;10.60;5.30;;;20.40;60.90;;;;;;7374871;19;20019;-81
2022/09/04 03:14:01;;;;;;;9.90;4.63;;;20.30;60.70;;;;;;7372105;19;20496;-81
2022/09/04 03:16:38;;;;;;;6.45;3.85;;;20.10;61.00;;;;;;7373492;19;20049;-81
2022/09/04 03:19:20;;;;;;;5.75;3.60;;;20.10;61.00;;;;;;7371366;19;20662;-81
2022/09/04 03:21:57;;;;;;;7.40;4.00;;;20.10;61.10;;;;;;7372691;19;20437;-81
2022/09/04 03:24:35;;;;;;;7.88;4.13;;;20.10;60.80;;;;;;7395112;19;20021;-82
2022/09/04 03:27:07;;;;;;;8.57;4.20;;;20.20;60.80;;;;;;7375323;19;20321;-81
2022/09/04 03:29:45;;;;;;;9.65;4.10;;;20.10;61.10;;;;;;7375393;19;20480;-81
2022/09/04 03:32:22;;;;;;;8.13;4.40;;;20.00;61.10;;;;;;7371491;19;20046;-81
2022/09/04 03:35:02;;;;;;;7.63;4.40;;;20.10;61.40;;;;;;7373432;19;20010;-81
2022/09/04 03:37:50;;;;;;;5.03;3.90;;;20.10;61.40;;;;;;7372654;19;20028;-81
2022/09/04 03:40:31;;;;;;;6.25;3.85;;;20.10;61.30;;;;;;7371502;19;20014;-81
2022/09/04 03:43:29;;;;;;;6.63;3.80;;;20.10;61.40;;;;;;7369809;19;20441;-81
2022/09/04 03:46:06;;;;;;;7.00;4.18;;;20.20;61.00;;;;;;7373159;19;20204;-81
2022/09/04 03:48:59;;;;;;;5.28;3.72;;;20.10;61.30;;;;;;7382728;19;20019;-82
2022/09/04 03:51:41;;;;;;;8.38;4.60;;;20.30;61.00;;;;;;7393316;19;20011;-81
2022/09/04 03:54:27;;;;;;;6.63;4.00;;;20.30;60.80;;;;;;7372517;19;20011;-81
2022/09/04 03:57:19;;;;;;;7.35;3.95;;;20.30;60.70;;;;;;7372207;19;20032;-81
2022/09/04 04:00:02;;;;;;;10.05;4.45;;;20.20;60.90;;;;;;7372875;19;20031;-82
2022/09/04 04:02:45;;;;;;;7.63;4.25;;;20.20;60.80;;;;;;7374150;19;20019;-82
2022/09/04 04:05:29;;;;;;;5.25;4.57;;;20.30;61.10;;;;;;7372893;19;20034;-81
2022/09/04 04:08:22;;;;;;;6.78;3.88;;;20.20;61.10;;;;;;7372196;19;20026;-81
2022/09/04 04:10:59;;;;;;;6.38;4.38;;;20.20;61.10;;;;;;7381469;19;20363;-81
2022/09/04 04:14:04;;;;;;;6.82;4.43;;;20.10;61.10;;;;;;7378434;19;20015;-81
2022/09/04 04:16:45;;;;;;;9.20;4.78;;;20.00;61.40;;;;;;7379915;19;20014;-81
2022/09/04 04:19:38;;;;;;;7.47;4.03;;;20.00;61.60;;;;;;7376826;19;20785;-81
2022/09/04 04:22:27;;;;;;;7.53;4.32;;;20.10;61.50;;;;;;7381585;19;20370;-81
2022/09/04 04:25:25;;;;;;;8.55;4.20;;;20.00;61.70;;;;;;7376295;19;20040;-82
2022/09/04 04:28:18;;;;;;;9.18;4.38;;;20.00;61.80;;;;;;7375255;19;20464;-82
2022/09/04 04:30:51;;;;;;;6.18;4.05;;;19.90;61.70;;;;;;7377384;19;20429;-82
2022/09/04 04:33:41;;;;;;;6.85;4.20;;;19.90;62.00;;;;;;7397050;19;20018;-82
2022/09/04 04:36:19;;;;;;;10.00;4.28;;;20.00;61.70;;;;;;7380225;19;20010;-82
2022/09/04 04:39:18;;;;;;;9.32;4.80;;;20.00;61.70;;;;;;7378303;19;20014;-82
2022/09/04 04:42:10;;;;;;;7.88;4.30;;;19.90;61.90;;;;;;7379556;19;20011;-81
2022/09/04 04:48:00;;;;;;;9.68;4.20;;;20.00;61.50;;;;;;7378849;19;20026;-82
2022/09/04 04:50:41;;;;;;;10.70;3.90;;;19.80;61.70;;;;;;7378700;19;20334;-82
2022/09/04 04:53:20;;;;;;;7.43;4.00;;;19.80;62.00;;;;;;7379104;19;20011;-81
2022/09/04 04:55:58;;;;;;;5.10;3.42;;;19.90;61.70;;;;;;7378620;19;20014;-81
2022/09/04 04:58:48;;;;;;;8.77;4.00;;;19.90;61.40;;;;;;7377508;19;20019;-81
2022/09/04 05:01:32;;;;;;;7.43;3.78;;;19.90;61.40;;;;;;7378190;19;20014;-82
2022/09/04 05:04:16;;;;;;;7.43;4.00;;;19.90;62.50;;;;;;7377477;19;20014;-82
2022/09/04 05:06:53;;;;;;;9.02;3.97;;;19.80;61.90;;;;;;7376683;19;20018;-80
2022/09/04 05:09:30;;;;;;;9.68;3.92;;;19.80;61.70;;;;;;7402352;19;20015;-83
2022/09/04 05:12:08;;;;;;;7.00;3.83;;;19.70;61.60;;;;;;7377940;19;20035;-82
2022/09/04 05:14:50;;;;;;;6.03;3.70;;;19.90;61.60;;;;;;7377638;19;20019;-82
2022/09/04 05:17:36;;;;;;;7.82;3.60;;;19.80;61.40;;;;;;7377365;19;20025;-82
2022/09/04 05:20:30;;;;;;;12.23;4.10;;;19.70;61.50;;;;;;7376449;19;20010;-81
2022/09/04 05:23:07;;;;;;;9.38;4.05;;;19.80;61.70;;;;;;7376375;19;20014;-82
2022/09/04 05:25:42;;;;;;;7.85;3.60;;;19.70;61.90;;;;;;7376794;19;20014;-82
2022/09/04 05:28:33;;;;;;;8.65;3.88;;;19.60;62.00;;;;;;7380110;19;20011;-82
2022/09/04 05:31:13;;;;;;;5.90;3.95;;;19.50;62.10;;;;;;7375792;19;20042;-82
2022/09/04 05:33:57;;;;;;;9.75;4.53;;;19.60;62.30;;;;;;7378040;19;20014;-82
2022/09/04 05:36:36;;;;;;;7.05;4.68;;;19.50;62.30;;;;;;7398902;19;20057;-81
2022/09/04 05:39:11;;;;;;;6.47;3.65;;;19.40;62.40;;;;;;7377390;19;20015;-82
2022/09/04 05:41:58;;;;;;;5.93;3.85;;;19.50;62.40;;;;;;7377033;19;20014;-83
2022/09/04 05:44:39;;;;;;;6.85;4.28;;;19.60;62.00;;;;;;7376317;19;20021;-81
2022/09/04 05:47:19;;;;;;;11.43;4.22;;;19.60;61.90;;;;;;7376896;19;20472;-81
2022/09/04 05:50:20;;;;;;;11.63;3.95;;;19.50;62.20;;;;;;7378652;19;20025;-82
2022/09/04 05:53:14;;;;;;;6.95;3.70;;;19.60;62.40;;;;;;7378716;19;20820;-82
2022/09/04 05:56:11;;;;;;;5.63;3.90;;;19.60;62.40;;;;;;7377149;19;20688;-82
2022/09/04 05:58:55;;;;;;;6.65;4.38;;;19.70;62.20;;;;;;7374659;19;20018;-83
2022/09/04 06:01:39;;;;;;;6.65;4.50;;;19.70;62.30;;;;;;7377448;19;20014;-81
2022/09/04 06:04:25;;;;;;;6.07;4.38;;;19.80;62.20;;;;;;7373625;19;20044;-81
2022/09/04 06:07:06;;;;;;;7.28;4.65;;;19.80;62.10;;;;;;7377991;19;20339;-82
2022/09/04 06:09:48;;;;;;;8.02;4.53;;;19.70;62.50;;;;;;7378456;19;20053;-81
2022/09/04 06:12:30;;;;;;;11.23;4.90;;;19.70;62.60;;;;;;7399947;19;20039;-82
2022/09/04 06:15:26;;;;;;;6.68;4.57;;;19.70;62.50;;;;;;7378726;19;20026;-82
2022/09/04 06:18:32;;;;;;;9.35;4.40;;;19.80;62.60;;;;;;7375482;19;20021;-82
2022/09/04 06:24:39;;;;;;;11.65;4.68;;;20.00;62.50;;;;;;7376371;19;20007;-83
2022/09/04 06:27:33;;;;;;;8.15;4.35;;;20.00;62.50;;;;;;7377538;19;20021;-82
2022/09/04 06:30:08;;;;;;;6.40;4.55;;;20.00;62.60;;;;;;7374818;19;20042;-82
2022/09/04 06:33:05;;;;;;;7.85;4.72;;;20.10;62.70;;;;;;7372836;19;20026;-81
2022/09/04 06:35:48;;;;;;;7.72;4.50;;;20.20;62.50;;;;;;7371021;19;20014;-82
2022/09/04 06:38:39;;;;;;;9.93;5.07;;;20.30;62.50;;;;;;7371188;19;20022;-82
2022/09/04 06:41:28;;;;;;;7.70;4.53;;;20.40;62.40;;;;;;7370419;19;20017;-82
2022/09/04 06:44:07;;;;;;;6.88;4.13;;;20.70;62.10;;;;;;7372458;19;20014;-82
2022/09/04 06:46:44;;;;;;;7.65;4.40;;;20.70;62.00;;;;;;7370445;19;20019;-82
2022/09/04 06:49:19;;;;;;;9.43;4.38;;;20.70;61.60;;;;;;7369517;19;20015;-81
2022/09/04 06:52:11;;;;;;;7.47;4.40;;;20.70;61.40;;;;;;7369759;19;20450;-82
2022/09/04 06:54:51;;;;;;;9.55;4.22;;;20.60;61.80;;;;;;7373274;19;20020;-82
2022/09/04 06:57:45;;;;;;;8.85;4.10;;;20.70;61.90;;;;;;7394576;19;20496;-81
2022/09/04 07:00:16;;;;;;;6.97;3.60;;;20.80;61.70;;;;;;7370993;19;20049;-82
2022/09/04 07:03:05;;;;;;;7.40;4.28;;;20.80;62.80;;;;;;7370178;19;20021;-82
2022/09/04 07:09:07;;;;;;;5.93;3.92;;;20.90;61.90;;;;;;7374187;19;20022;-82
2022/09/04 07:12:03;;;;;;;6.20;3.60;;;21.00;61.80;;;;;;7371247;19;20043;-82
2022/09/04 07:14:51;;;;;;;7.93;3.85;;;21.10;62.00;;;;;;7372543;19;20334;-82
2022/09/04 07:17:26;;;;;;;13.93;4.25;;;21.20;62.20;;;;;;7371801;19;20034;-82
2022/09/04 07:20:18;;;;;;;8.50;4.05;;;21.30;61.80;;;;;;7371675;19;20063;-82
2022/09/04 07:23:04;;;;;;;11.75;4.47;;;21.40;61.40;;;;;;7371352;19;20567;-82
2022/09/04 07:25:43;;;;;;;7.22;4.10;;;21.50;61.10;;;;;;7373120;19;20094;-82
2022/09/04 07:28:31;;;;;;;9.07;3.92;;;21.40;61.00;;;;;;7372156;19;20034;-83
2022/09/04 07:31:09;;;;;;;8.90;3.92;;;21.50;60.50;;;;;;7374232;19;20015;-81
2022/09/04 07:33:50;;;;;;;9.52;3.58;;;21.50;59.80;;;;;;7372468;19;20379;-82
2022/09/04 07:36:25;;;;;;;8.98;3.90;;;21.60;59.70;;;;;;7393270;19;20466;-82
2022/09/04 07:39:04;;;;;;;10.35;3.25;;;21.60;59.70;;;;;;7372405;19;20099;-82
2022/09/04 07:41:43;;;;;;;7.47;3.30;;;21.60;59.30;;;;;;7373106;19;20018;-82
2022/09/04 07:44:23;;;;;;;7.78;3.65;;;21.70;58.60;;;;;;7375888;19;20018;-85
2022/09/04 07:47:29;;;;;;;9.33;3.70;;;21.80;58.50;;;;;;7390051;19;20035;-88
2022/09/04 07:50:25;;;;;;;10.65;3.55;;;21.80;58.40;;;;;;7347293;19;20097;-88
2022/09/04 07:56:15;;;;;;;7.82;3.35;;;22.00;58.80;;;;;;7381306;19;20011;-85
2022/09/04 07:59:01;;;;;;;9.18;3.65;;;22.10;58.90;;;;;;7343541;19;20018;-82
2022/09/04 08:01:57;;;;;;;5.25;3.10;;;22.20;58.80;;;;;;7377435;19;20007;-82
2022/09/04 08:04:55;;;;;;;5.95;3.03;;;22.30;58.80;;;;;;7375226;19;20075;-83
2022/09/04 08:07:48;;;;;;;11.50;4.15;;;22.40;58.40;;;;;;7379005;19;20029;-83
2022/09/04 08:20:11;;;;;;;13.35;3.30;;;22.60;57.60;;;;;;7375218;19;20686;-81
2022/09/04 08:22:49;;;;;;;8.45;3.03;;;22.60;57.50;;;;;;7376859;19;20015;-82
2022/09/04 08:25:31;;;;;;;11.07;3.25;;;22.70;57.40;;;;;;7374968;19;20007;-83
2022/09/04 08:28:37;;;;;;;5.70;2.72;;;22.70;57.60;;;;;;7373732;19;20015;-81
2022/09/04 08:31:13;;;;;;;5.75;2.78;;;22.70;57.10;;;;;;7376455;19;20018;-82
2022/09/04 09:54:37;;;;;;;7.78;2.40;;;23.90;52.30;;;;;;7398851;19;20166;-81
2022/09/04 09:57:57;;;;;;;6.43;2.20;;;23.70;51.50;;;;;;7374574;19;20015;-81
2022/09/04 10:01:03;;;;;;;5.53;2.28;;;23.70;51.80;;;;;;7373572;19;20030;-81
2022/09/04 10:04:05;;;;;;;7.85;2.13;;;23.90;51.80;;;;;;7269903;19;2004291;-83
2022/09/04 10:07:13;;;;;;;9.20;2.38;;;23.90;51.30;;;;;;7403112;19;20022;-83
2022/09/04 10:10:18;;;;;;;6.70;2.17;;;24.00;51.00;;;;;;7275844;19;2004309;-89
2022/09/04 13:38:17;;;;;;;3.97;1.92;;;28.20;42.90;;;;;;7382707;19;20322;-84
2022/09/04 13:41:15;;;;;;;2.63;1.55;;;28.10;42.90;;;;;;7401940;19;20054;-82
2022/09/04 13:44:06;;;;;;;5.20;2.15;;;28.20;43.30;;;;;;7383168;19;20018;-86
2022/09/04 13:46:45;;;;;;;6.07;2.42;;;28.30;42.90;;;;;;7383834;19;20026;-85
2022/09/04 13:49:21;;;;;;;3.60;2.17;;;28.30;42.70;;;;;;7383198;19;20031;-87
2022/09/04 13:51:58;;;;;;;4.18;1.95;;;28.40;42.80;;;;;;7383493;19;20442;-84
2022/09/04 13:54:35;;;;;;;2.38;1.98;;;28.50;42.80;;;;;;7403638;19;20014;-85
2022/09/04 13:57:11;;;;;;;2.40;1.73;;;28.50;42.00;;;;;;7377645;19;20113;-83
2022/09/04 13:59:42;;;;;;;2.67;1.85;;;28.60;41.80;;;;;;7377899;19;20018;-83
2022/09/04 14:02:15;;;;;;;6.30;2.05;;;28.70;41.90;;;;;;7378872;19;20011;-85
2022/09/04 14:04:49;;;;;;;1.98;1.77;;;28.80;41.50;;;;;;7378277;19;20110;-86
2022/09/04 14:07:30;;;;;;;3.85;1.58;;;28.80;41.20;;;;;;7380511;19;20026;-87
2022/09/04 14:10:07;;;;;;;4.18;1.83;;;28.70;41.10;;;;;;7372125;19;20089;-87
2022/09/04 14:12:51;;;;;;;2.72;1.60;;;28.80;40.70;;;;;;7388503;19;20074;-85
2022/09/04 14:15:50;;;;;;;4.25;1.88;;;29.00;41.00;;;;;;7412423;19;20014;-87
2022/09/04 14:18:30;;;;;;;4.35;1.70;;;29.00;40.80;;;;;;7390489;19;20035;-86
2022/09/04 14:21:04;;;;;;;3.38;1.70;;;29.00;40.70;;;;;;7379834;19;20017;-84
2022/09/04 14:23:48;;;;;;;5.85;1.70;;;29.00;40.40;;;;;;7378823;19;20018;-83
2022/09/04 14:26:30;;;;;;;5.03;1.58;;;29.10;39.80;;;;;;7379028;19;20055;-85
2022/09/04 14:29:05;;;;;;;2.45;1.58;;;29.10;39.80;;;;;;7383572;19;20015;-86
2022/09/04 14:31:42;;;;;;;2.25;1.60;;;29.00;39.50;;;;;;7398597;19;20495;-85
2022/09/04 14:34:19;;;;;;;2.30;1.63;;;29.00;39.00;;;;;;7395370;19;20014;-86
2022/09/04 14:36:58;;;;;;;3.03;1.70;;;29.00;38.80;;;;;;7379754;19;20324;-85
2022/09/04 14:39:32;;;;;;;1.90;1.45;;;29.10;38.90;;;;;;7400217;19;20049;-79
2022/09/04 14:42:27;;;;;;;2.78;1.40;;;29.20;38.60;;;;;;7377567;19;20026;-82
2022/09/04 14:45:18;;;;;;;2.63;1.67;;;29.30;38.60;;;;;;7376153;19;20022;-82
2022/09/04 14:47:53;;;;;;;5.53;1.52;;;29.40;38.50;;;;;;7373902;19;20101;-83
2022/09/04 14:50:27;;;;;;;4.15;1.83;;;29.50;38.90;;;;;;7375099;19;20014;-82
2022/09/04 14:52:59;;;;;;;2.78;1.52;;;29.60;38.40;;;;;;7374802;19;20018;-81
2022/09/04 14:55:30;;;;;;;4.72;1.70;;;29.60;38.50;;;;;;7376649;19;20014;-82
2022/09/04 14:58:10;;;;;;;3.15;1.50;;;29.70;37.50;;;;;;7373089;19;20572;-82
2022/09/04 15:00:59;;;;;;;2.75;1.60;;;29.60;37.70;;;;;;7373782;19;20024;-82
2022/09/04 15:03:35;;;;;;;2.90;1.40;;;29.60;37.90;;;;;;7395533;19;20018;-82
2022/09/04 15:06:14;;;;;;;2.10;1.30;;;29.60;37.70;;;;;;7374223;19;20015;-84
2022/09/04 15:08:45;;;;;;;2.80;1.73;;;29.50;37.00;;;;;;7375216;19;20022;-83
2022/09/04 15:11:29;;;;;;;3.45;1.60;;;29.60;36.80;;;;;;7373858;19;20048;-82
2022/09/04 15:14:04;;;;;;;2.03;1.48;;;29.70;36.70;;;;;;7373056;19;20030;-82
2022/09/04 15:16:50;;;;;;;2.60;1.38;;;29.70;36.80;;;;;;7374060;19;20081;-82
2022/09/04 15:19:29;;;;;;;2.00;1.40;;;29.70;37.40;;;;;;7373148;19;20035;-83
2022/09/04 15:22:05;;;;;;;2.00;1.63;;;29.80;37.40;;;;;;7372978;19;20014;-82
2022/09/04 15:24:38;;;;;;;3.25;1.42;;;29.70;37.10;;;;;;7399202;19;20306;-82
2022/09/04 15:27:18;;;;;;;5.70;1.90;;;29.80;36.90;;;;;;7396824;19;20025;-81
2022/09/04 15:30:05;;;;;;;4.60;1.57;;;29.80;36.70;;;;;;7374707;19;20018;-82
2022/09/04 15:32:38;;;;;;;3.97;2.20;;;29.90;36.40;;;;;;7372516;19;20018;-82
2022/09/04 15:35:17;;;;;;;2.42;1.15;;;30.00;36.10;;;;;;7373912;19;20041;-82
2022/09/04 15:37:49;;;;;;;11.63;1.50;;;29.90;36.00;;;;;;7372289;19;20039;-82
2022/09/04 15:40:27;;;;;;;5.60;1.33;;;29.90;36.20;;;;;;7372564;19;20018;-82
2022/09/04 15:43:05;;;;;;;1.60;1.50;;;29.90;36.50;;;;;;7374431;19;20019;-82
2022/09/04 15:45:44;;;;;;;3.08;1.33;;;30.00;36.10;;;;;;7392339;19;20014;-82
2022/09/04 15:48:37;;;;;;;1.83;1.38;;;30.00;35.90;;;;;;7397244;19;20019;-82
2022/09/04 15:51:17;;;;;;;1.60;1.40;;;30.00;35.90;;;;;;7371215;19;20027;-82
2022/09/04 15:53:53;;;;;;;4.67;1.67;;;29.80;35.60;;;;;;7371052;19;20025;-82
2022/09/04 15:56:36;;;;;;;1.60;1.40;;;29.80;36.00;;;;;;7370342;19;20346;-82
2022/09/04 15:59:14;;;;;;;2.90;1.15;;;30.00;36.30;;;;;;7372249;19;20023;-82
2022/09/04 16:01:52;;;;;;;1.58;1.30;;;29.90;36.70;;;;;;7375789;19;20125;-82
2022/09/04 16:04:27;;;;;;;2.92;1.90;;;30.00;37.00;;;;;;7377551;19;20449;-81
2022/09/04 16:07:00;;;;;;;2.45;1.52;;;30.10;37.40;;;;;;7381826;19;20022;-81
2022/09/04 16:09:35;;;;;;;5.05;1.50;;;30.10;37.40;;;;;;7401157;19;20250;-83
2022/09/04 16:12:12;;;;;;;3.53;1.92;;;30.20;37.50;;;;;;7377993;19;20483;-83
2022/09/04 16:14:47;;;;;;;4.00;1.70;;;30.30;37.40;;;;;;7379648;19;20014;-84
2022/09/04 16:17:24;;;;;;;3.35;1.50;;;30.30;37.10;;;;;;7379065;19;20018;-83
2022/09/04 16:20:00;;;;;;;1.80;1.50;;;30.40;36.60;;;;;;7378833;19;20018;-84
2022/09/04 16:22:36;;;;;;;2.58;1.50;;;30.40;35.70;;;;;;7380275;19;20144;-83
2022/09/04 16:25:10;;;;;;;1.65;1.33;;;30.40;35.00;;;;;;7377288;19;20051;-82
2022/09/04 16:27:46;;;;;;;2.67;1.30;;;30.50;35.10;;;;;;7381300;19;20031;-82
2022/09/04 16:30:36;;;;;;;2.35;1.45;;;30.80;35.20;;;;;;7405075;19;20053;-82
2022/09/04 16:33:11;;;;;;;5.28;2.13;;;31.30;35.20;;;;;;7381022;19;20078;-82
2022/09/04 16:35:44;;;;;;;2.05;1.52;;;31.90;34.50;;;;;;7377701;19;20113;-82
2022/09/04 16:38:18;;;;;;;3.83;2.10;;;32.40;33.80;;;;;;7379010;19;20011;-82
2022/09/04 16:40:55;;;;;;;4.13;1.60;;;32.50;33.60;;;;;;7379542;19;20027;-82
2022/09/04 16:43:32;;;;;;;3.35;1.52;;;32.50;34.60;;;;;;7380475;19;20433;-82
2022/09/04 16:46:14;;;;;;;5.25;1.70;;;32.30;34.20;;;;;;7383640;19;20062;-81
2022/09/04 16:48:51;;;;;;;2.40;1.42;;;32.20;34.60;;;;;;7383175;19;20039;-81
2022/09/04 16:51:30;;;;;;;4.22;1.88;;;32.10;34.80;;;;;;7402445;19;20022;-82
2022/09/04 16:54:07;;;;;;;6.47;2.20;;;32.30;34.40;;;;;;7383690;19;20359;-82
2022/09/04 16:56:42;;;;;;;4.72;2.75;;;32.60;34.10;;;;;;7384048;19;20007;-82
2022/09/04 16:59:21;;;;;;;2.80;1.67;;;33.00;33.10;;;;;;7389039;19;20010;-83
2022/09/04 17:01:59;;;;;;;5.65;1.55;;;33.30;32.60;;;;;;7385894;19;20011;-81
2022/09/04 17:04:41;;;;;;;6.50;1.92;;;33.60;32.20;;;;;;7394025;19;20042;-83
2022/09/04 17:07:20;;;;;;;4.10;1.88;;;34.00;31.90;;;;;;7387150;19;20019;-81
2022/09/04 19:07:05;;;;;;;4.38;2.25;;;25.90;47.00;;;;;;7343846;19;20017;-87
2022/09/04 23:14:35;;;;;;;1.63;1.33;;;25.00;57.90;;;;;;7381974;19;20006;-82
2022/09/04 23:17:31;;;;;;;3.17;1.63;;;24.90;57.50;;;;;;7380210;19;20010;-82
2022/09/04 23:20:36;;;;;;;4.78;1.50;;;24.70;57.40;;;;;;7380509;19;20563;-82
2022/09/04 23:23:29;;;;;;;2.78;1.50;;;24.70;57.90;;;;;;7375747;19;20022;-82
2022/09/04 23:26:34;;;;;;;2.05;1.58;;;24.70;58.00;;;;;;7372402;19;20014;-81
2022/09/04 23:29:32;;;;;;;2.22;1.17;;;24.70;57.60;;;;;;7370790;19;20021;-82
2022/09/04 23:32:23;;;;;;;3.67;1.40;;;24.70;57.70;;;;;;7371072;19;20017;-82
2022/09/04 23:35:04;;;;;;;;;;;24.70;57.80;;;;;;7373837;19;20014;-82
2022/09/04 23:37:57;;;;;;;1.83;1.20;;;24.70;57.90;;;;;;7375680;19;19915;-82
2022/09/04 23:40:40;;;;;;;3.78;1.48;;;24.70;57.90;;;;;;7370943;19;20002;-82
2022/09/04 23:43:45;;;;;;;3.40;1.60;;;24.80;57.70;;;;;;7368992;19;20319;-82
2022/09/04 23:46:44;;;;;;;2.45;1.70;;;24.80;57.80;;;;;;7370167;19;20010;-82
2022/09/04 23:49:54;;;;;;;2.13;1.67;;;24.80;57.70;;;;;;7368403;19;20036;-82
2022/09/04 23:52:33;;;;;;;4.80;1.77;;;24.70;57.80;;;;;;7373810;19;20686;-82
2022/09/04 23:55:19;;;;;;;2.22;1.50;;;24.70;57.80;;;;;;7381388;19;20019;-82
2022/09/04 23:57:57;;;;;;;5.18;1.50;;;24.60;57.90;;;;;;7381994;19;20032;-81
